sensor_id;sensor_type;location;lat;lon;timestamp;pressure;altitude;pressure_sealevel;temperature;humidity
64158;BME280;50449;51.528;5.076;2023-03-22T00:00:48;100859.81;;;16.03;56.29
64158;BME280;50449;51.528;5.076;2023-03-22T00:03:14;100863.59;;;16.02;56.16
64158;BME280;50449;51.528;5.076;2023-03-22T00:05:40;100856.53;;;16.01;55.92
64158;BME280;50449;51.528;5.076;2023-03-22T00:08:05;100853.00;;;16.00;56.37
64158;BME280;50449;51.528;5.076;2023-03-22T00:10:32;100843.47;;;15.98;56.14
64158;BME280;50449;51.528;5.076;2023-03-22T00:12:58;100839.91;;;15.97;56.37
64158;BME280;50449;51.528;5.076;2023-03-22T00:15:24;100840.22;;;15.96;56.00
64158;BME280;50449;51.528;5.076;2023-03-22T00:17:50;100837.47;;;15.96;55.94
64158;BME280;50449;51.528;5.076;2023-03-22T00:20:16;100831.75;;;15.92;56.35
64158;BME280;50449;51.528;5.076;2023-03-22T00:22:42;100829.03;;;15.92;55.78
64158;BME280;50449;51.528;5.076;2023-03-22T00:25:08;100825.78;;;15.90;56.29
64158;BME280;50449;51.528;5.076;2023-03-22T00:27:34;100828.78;;;15.89;56.40
64158;BME280;50449;51.528;5.076;2023-03-22T00:30:00;100817.88;;;15.89;56.03
64158;BME280;50449;51.528;5.076;2023-03-22T00:32:26;100817.34;;;15.87;56.25
64158;BME280;50449;51.528;5.076;2023-03-22T00:34:51;100809.47;;;15.85;56.07
64158;BME280;50449;51.528;5.076;2023-03-22T00:37:17;100815.16;;;15.84;56.23
64158;BME280;50449;51.528;5.076;2023-03-22T00:39:43;100814.34;;;15.83;56.21
64158;BME280;50449;51.528;5.076;2023-03-22T00:42:08;100808.38;;;15.81;56.27
64158;BME280;50449;51.528;5.076;2023-03-22T00:44:34;100805.91;;;15.79;56.21
64158;BME280;50449;51.528;5.076;2023-03-22T00:46:59;100798.03;;;15.78;55.93
64158;BME280;50449;51.528;5.076;2023-03-22T00:49:25;100802.94;;;15.76;56.20
64158;BME280;50449;51.528;5.076;2023-03-22T00:51:52;100792.03;;;15.76;56.24
64158;BME280;50449;51.528;5.076;2023-03-22T00:54:18;100789.59;;;15.74;55.82
64158;BME280;50449;51.528;5.076;2023-03-22T00:56:43;100792.59;;;15.73;56.19
64158;BME280;50449;51.528;5.076;2023-03-22T00:59:14;100788.22;;;15.72;55.92
64158;BME280;50449;51.528;5.076;2023-03-22T01:01:40;100780.06;;;15.72;56.02
64158;BME280;50449;51.528;5.076;2023-03-22T01:04:05;100777.63;;;15.70;56.00
64158;BME280;50449;51.528;5.076;2023-03-22T01:06:32;100775.97;;;15.69;56.15
64158;BME280;50449;51.528;5.076;2023-03-22T01:08:58;100767.22;;;15.67;55.86
64158;BME280;50449;51.528;5.076;2023-03-22T01:11:24;100754.72;;;15.66;55.79
64158;BME280;50449;51.528;5.076;2023-03-22T01:13:49;100755.81;;;15.65;56.06
64158;BME280;50449;51.528;5.076;2023-03-22T01:16:16;100741.38;;;15.65;55.94
64158;BME280;50449;51.528;5.076;2023-03-22T01:18:42;100731.59;;;15.64;56.28
64158;BME280;50449;51.528;5.076;2023-03-22T01:21:08;100726.41;;;15.62;56.08
64158;BME280;50449;51.528;5.076;2023-03-22T01:23:34;100723.97;;;15.61;56.29
64158;BME280;50449;51.528;5.076;2023-03-22T01:26:00;100722.31;;;15.59;55.94
64158;BME280;50449;51.528;5.076;2023-03-22T01:28:27;100719.91;;;15.58;55.90
64158;BME280;50449;51.528;5.076;2023-03-22T01:30:52;100710.38;;;15.55;55.96
64158;BME280;50449;51.528;5.076;2023-03-22T01:42:30;100694.63;;;15.42;56.34
64158;BME280;50449;51.528;5.076;2023-03-22T01:50:09;100674.50;;;15.38;56.25
64158;BME280;50449;51.528;5.076;2023-03-22T01:52:35;100670.66;;;15.39;56.30
64158;BME280;50449;51.528;5.076;2023-03-22T01:55:03;100669.03;;;15.38;56.29
64158;BME280;50449;51.528;5.076;2023-03-22T01:57:31;100667.41;;;15.37;56.32
64158;BME280;50449;51.528;5.076;2023-03-22T02:00:03;100658.41;;;15.36;56.26
64158;BME280;50449;51.528;5.076;2023-03-22T02:02:33;100657.63;;;15.36;56.26
64158;BME280;50449;51.528;5.076;2023-03-22T02:05:00;100659.53;;;15.35;56.25
64158;BME280;50449;51.528;5.076;2023-03-22T02:07:25;100656.81;;;15.35;56.22
64158;BME280;50449;51.528;5.076;2023-03-22T02:09:52;100654.88;;;15.36;56.36
64158;BME280;50449;51.528;5.076;2023-03-22T02:12:37;100648.91;;;15.34;56.10
64158;BME280;50449;51.528;5.076;2023-03-22T02:26:41;100632.06;;;15.22;56.11
64158;BME280;50449;51.528;5.076;2023-03-22T02:32:19;100637.25;;;15.18;56.44
64158;BME280;50449;51.528;5.076;2023-03-22T02:40:32;100622.84;;;15.18;56.43
64158;BME280;50449;51.528;5.076;2023-03-22T02:45:59;100632.06;;;15.17;56.42
64158;BME280;50449;51.528;5.076;2023-03-22T02:48:35;100620.13;;;15.18;56.32
64158;BME280;50449;51.528;5.076;2023-03-22T02:51:12;100621.75;;;15.19;56.58
64158;BME280;50449;51.528;5.076;2023-03-22T02:53:45;100618.22;;;15.18;56.18
64158;BME280;50449;51.528;5.076;2023-03-22T02:56:17;100608.13;;;15.19;56.03
64158;BME280;50449;51.528;5.076;2023-03-22T02:58:47;100602.69;;;15.19;56.32
64158;BME280;50449;51.528;5.076;2023-03-22T03:01:24;100599.16;;;15.18;56.01
64158;BME280;50449;51.528;5.076;2023-03-22T03:03:56;100597.53;;;15.17;56.11
64158;BME280;50449;51.528;5.076;2023-03-22T03:06:27;100594.00;;;15.17;56.13
64158;BME280;50449;51.528;5.076;2023-03-22T03:08:56;100595.91;;;15.16;56.43
64158;BME280;50449;51.528;5.076;2023-03-22T03:11:22;100597.00;;;15.15;56.35
64158;BME280;50449;51.528;5.076;2023-03-22T03:13:48;100594.00;;;15.17;56.19
64158;BME280;50449;51.528;5.076;2023-03-22T03:16:17;100583.41;;;15.15;56.09
64158;BME280;50449;51.528;5.076;2023-03-22T03:19:00;100588.28;;;15.13;55.99
64158;BME280;50449;51.528;5.076;2023-03-22T03:29:39;100585.59;;;15.08;56.20
64158;BME280;50449;51.528;5.076;2023-03-22T03:32:28;100588.56;;;15.06;56.41
64158;BME280;50449;51.528;5.076;2023-03-22T03:35:39;100597.28;;;15.03;56.60
64158;BME280;50449;51.528;5.076;2023-03-22T03:38:13;100595.13;;;15.05;56.01
64158;BME280;50449;51.528;5.076;2023-03-22T03:40:47;100590.50;;;15.06;56.34
64158;BME280;50449;51.528;5.076;2023-03-22T03:43:14;100601.09;;;15.07;56.51
64158;BME280;50449;51.528;5.076;2023-03-22T03:45:40;100601.09;;;15.07;56.44
64158;BME280;50449;51.528;5.076;2023-03-22T03:48:14;100604.63;;;15.08;56.45
64158;BME280;50449;51.528;5.076;2023-03-22T03:50:42;100606.81;;;15.06;56.29
64158;BME280;50449;51.528;5.076;2023-03-22T03:53:08;100604.91;;;15.06;56.42
64158;BME280;50449;51.528;5.076;2023-03-22T03:55:33;100598.66;;;15.06;56.65
64158;BME280;50449;51.528;5.076;2023-03-22T03:57:58;100594.03;;;15.06;56.35
64158;BME280;50449;51.528;5.076;2023-03-22T04:00:24;100602.19;;;15.06;56.48
64158;BME280;50449;51.528;5.076;2023-03-22T04:02:49;100606.56;;;15.07;56.48
64158;BME280;50449;51.528;5.076;2023-03-22T04:05:15;100604.91;;;15.06;56.40
64158;BME280;50449;51.528;5.076;2023-03-22T04:07:40;100597.84;;;15.05;56.10
64158;BME280;50449;51.528;5.076;2023-03-22T04:10:06;100604.34;;;15.04;56.43
64158;BME280;50449;51.528;5.076;2023-03-22T04:12:32;100596.50;;;15.03;56.28
64158;BME280;50449;51.528;5.076;2023-03-22T04:14:58;100589.13;;;15.03;56.51
64158;BME280;50449;51.528;5.076;2023-03-22T04:17:24;100582.88;;;15.03;56.41
64158;BME280;50449;51.528;5.076;2023-03-22T04:19:53;100589.41;;;15.02;56.38
64158;BME280;50449;51.528;5.076;2023-03-22T04:22:21;100580.44;;;15.01;56.64
64158;BME280;50449;51.528;5.076;2023-03-22T04:24:47;100582.34;;;15.01;56.45
64158;BME280;50449;51.528;5.076;2023-03-22T04:27:17;100575.28;;;15.00;56.34
64158;BME280;50449;51.528;5.076;2023-03-22T04:29:44;100584.25;;;15.00;56.22
64158;BME280;50449;51.528;5.076;2023-03-22T04:32:18;100582.34;;;15.01;56.19
64158;BME280;50449;51.528;5.076;2023-03-22T04:34:46;100574.44;;;14.99;56.09
64158;BME280;50449;51.528;5.076;2023-03-22T04:37:12;100575.28;;;15.00;56.12
64158;BME280;50449;51.528;5.076;2023-03-22T04:39:38;100573.94;;;14.97;56.45
64158;BME280;50449;51.528;5.076;2023-03-22T04:42:03;100581.00;;;14.98;56.55
64158;BME280;50449;51.528;5.076;2023-03-22T04:44:29;100581.00;;;14.98;56.15
64158;BME280;50449;51.528;5.076;2023-03-22T04:46:54;100583.72;;;14.98;56.49
64158;BME280;50449;51.528;5.076;2023-03-22T04:49:20;100576.66;;;14.97;56.26
64158;BME280;50449;51.528;5.076;2023-03-22T04:51:46;100569.56;;;14.96;56.60
64158;BME280;50449;51.528;5.076;2023-03-22T04:54:11;100570.66;;;14.95;56.21
64158;BME280;50449;51.528;5.076;2023-03-22T04:56:37;100569.03;;;14.94;56.30
64158;BME280;50449;51.528;5.076;2023-03-22T04:59:05;100563.06;;;14.92;56.18
64158;BME280;50449;51.528;5.076;2023-03-22T05:01:31;100557.63;;;14.92;56.42
64158;BME280;50449;51.528;5.076;2023-03-22T05:03:56;100564.94;;;14.91;56.29
64158;BME280;50449;51.528;5.076;2023-03-22T05:06:22;100557.09;;;14.90;56.25
64158;BME280;50449;51.528;5.076;2023-03-22T05:08:47;100569.03;;;14.89;56.50
64158;BME280;50449;51.528;5.076;2023-03-22T05:11:15;100560.88;;;14.89;56.24
64158;BME280;50449;51.528;5.076;2023-03-22T05:13:41;100557.66;;;14.87;56.55
64158;BME280;50449;51.528;5.076;2023-03-22T05:16:07;100555.72;;;14.87;56.25
64158;BME280;50449;51.528;5.076;2023-03-22T05:18:34;100557.91;;;14.85;56.49
64158;BME280;50449;51.528;5.076;2023-03-22T05:21:02;100565.81;;;14.87;56.71
64158;BME280;50449;51.528;5.076;2023-03-22T05:23:28;100562.25;;;14.86;56.35
64158;BME280;50449;51.528;5.076;2023-03-22T05:25:54;100559.00;;;14.84;56.39
64158;BME280;50449;51.528;5.076;2023-03-22T05:28:23;100556.28;;;14.84;56.55
64158;BME280;50449;51.528;5.076;2023-03-22T05:30:50;100550.00;;;14.84;56.25
64158;BME280;50449;51.528;5.076;2023-03-22T05:33:16;100548.41;;;14.83;56.56
64158;BME280;50449;51.528;5.076;2023-03-22T05:35:46;100548.66;;;14.81;56.29
64158;BME280;50449;51.528;5.076;2023-03-22T05:38:11;100547.59;;;14.82;56.22
64158;BME280;50449;51.528;5.076;2023-03-22T05:40:37;100548.66;;;14.81;56.10
64158;BME280;50449;51.528;5.076;2023-03-22T05:43:02;100545.13;;;14.81;56.03
64158;BME280;50449;51.528;5.076;2023-03-22T05:45:27;100554.09;;;14.81;56.47
64158;BME280;50449;51.528;5.076;2023-03-22T05:47:53;100551.69;;;14.80;56.31
64158;BME280;50449;51.528;5.076;2023-03-22T05:50:21;100564.72;;;14.78;56.32
64158;BME280;50449;51.528;5.076;2023-03-22T05:52:47;100554.66;;;14.78;56.54
64158;BME280;50449;51.528;5.076;2023-03-22T05:55:14;100548.41;;;14.78;56.39
64158;BME280;50449;51.528;5.076;2023-03-22T05:57:42;100550.31;;;14.77;56.48
64158;BME280;50449;51.528;5.076;2023-03-22T06:00:10;100553.84;;;14.78;56.39
64158;BME280;50449;51.528;5.076;2023-03-22T06:02:47;100545.16;;;14.76;56.37
64158;BME280;50449;51.528;5.076;2023-03-22T06:05:14;100554.94;;;14.77;56.07
64158;BME280;50449;51.528;5.076;2023-03-22T06:07:41;100551.41;;;14.76;56.23
64158;BME280;50449;51.528;5.076;2023-03-22T06:10:09;100553.31;;;14.76;56.14
64158;BME280;50449;51.528;5.076;2023-03-22T06:12:34;100555.47;;;14.74;56.14
64158;BME280;50449;51.528;5.076;2023-03-22T06:15:00;100563.63;;;14.74;56.01
64158;BME280;50449;51.528;5.076;2023-03-22T06:17:26;100542.19;;;14.72;56.46
64158;BME280;50449;51.528;5.076;2023-03-22T06:19:52;100551.41;;;14.71;56.29
64158;BME280;50449;51.528;5.076;2023-03-22T06:22:19;100549.78;;;14.70;56.13
64158;BME280;50449;51.528;5.076;2023-03-22T06:24:45;100556.28;;;14.69;56.43
64158;BME280;50449;51.528;5.076;2023-03-22T06:27:10;100549.78;;;14.70;56.22
64158;BME280;50449;51.528;5.076;2023-03-22T06:29:36;100559.84;;;14.69;56.16
64158;BME280;50449;51.528;5.076;2023-03-22T06:32:02;100547.63;;;14.67;56.60
64158;BME280;50449;51.528;5.076;2023-03-22T06:34:27;100547.06;;;14.65;56.54
64158;BME280;50449;51.528;5.076;2023-03-22T06:36:53;100549.78;;;14.65;56.35
64158;BME280;50449;51.528;5.076;2023-03-22T06:39:19;100539.19;;;14.63;56.23
64158;BME280;50449;51.528;5.076;2023-03-22T06:41:45;100545.16;;;14.65;56.27
64158;BME280;50449;51.528;5.076;2023-03-22T06:44:10;100555.22;;;14.65;56.29
64158;BME280;50449;51.528;5.076;2023-03-22T06:46:36;100556.03;;;14.65;56.30
64158;BME280;50449;51.528;5.076;2023-03-22T06:49:02;100553.06;;;14.67;56.54
64158;BME280;50449;51.528;5.076;2023-03-22T06:51:27;100555.78;;;14.67;56.26
64158;BME280;50449;51.528;5.076;2023-03-22T06:53:53;100556.03;;;14.65;56.49
64158;BME280;50449;51.528;5.076;2023-03-22T06:56:18;100560.38;;;14.66;56.09
64158;BME280;50449;51.528;5.076;2023-03-22T06:58:44;100564.19;;;14.65;56.50
64158;BME280;50449;51.528;5.076;2023-03-22T07:01:09;100566.09;;;14.65;56.28
64158;BME280;50449;51.528;5.076;2023-03-22T07:03:35;100556.59;;;14.62;56.13
64158;BME280;50449;51.528;5.076;2023-03-22T07:06:05;100563.66;;;14.63;56.19
64158;BME280;50449;51.528;5.076;2023-03-22T07:08:31;100560.38;;;14.66;56.03
64158;BME280;50449;51.528;5.076;2023-03-22T07:10:57;100557.94;;;14.65;56.14
64158;BME280;50449;51.528;5.076;2023-03-22T07:13:22;100564.47;;;14.64;56.29
64158;BME280;50449;51.528;5.076;2023-03-22T07:15:47;100560.66;;;14.65;56.13
64158;BME280;50449;51.528;5.076;2023-03-22T07:18:13;100571.00;;;14.63;56.18
64158;BME280;50449;51.528;5.076;2023-03-22T07:20:38;100576.44;;;14.63;56.15
64158;BME280;50449;51.528;5.076;2023-03-22T07:23:09;100563.09;;;14.61;56.05
64158;BME280;50449;51.528;5.076;2023-03-22T07:25:37;100572.91;;;14.62;56.27
64158;BME280;50449;51.528;5.076;2023-03-22T07:28:02;100575.63;;;14.62;55.98
64158;BME280;50449;51.528;5.076;2023-03-22T07:30:28;100571.81;;;14.63;56.19
64158;BME280;50449;51.528;5.076;2023-03-22T07:32:53;100568.53;;;14.61;56.14
64158;BME280;50449;51.528;5.076;2023-03-22T07:35:19;100562.28;;;14.61;56.28
64158;BME280;50449;51.528;5.076;2023-03-22T07:37:44;100571.00;;;14.63;56.02
64158;BME280;50449;51.528;5.076;2023-03-22T07:40:10;100568.28;;;14.63;55.98
64158;BME280;50449;51.528;5.076;2023-03-22T07:42:36;100572.63;;;14.59;56.03
64158;BME280;50449;51.528;5.076;2023-03-22T07:45:02;100568.84;;;14.60;55.97
64158;BME280;50449;51.528;5.076;2023-03-22T07:47:27;100566.66;;;14.62;56.04
64158;BME280;50449;51.528;5.076;2023-03-22T07:49:53;100564.19;;;14.65;56.18
64158;BME280;50449;51.528;5.076;2023-03-22T07:52:20;100575.63;;;14.67;56.14
64158;BME280;50449;51.528;5.076;2023-03-22T07:54:45;100559.31;;;14.67;55.91
64158;BME280;50449;51.528;5.076;2023-03-22T07:57:10;100562.28;;;14.61;56.32
64158;BME280;50449;51.528;5.076;2023-03-22T07:59:36;100561.47;;;14.65;55.95
64158;BME280;50449;51.528;5.076;2023-03-22T08:02:01;100566.34;;;14.68;55.78
64158;BME280;50449;51.528;5.076;2023-03-22T08:04:26;100572.59;;;14.69;55.90
64158;BME280;50449;51.528;5.076;2023-03-22T08:06:52;100563.38;;;14.70;56.18
64158;BME280;50449;51.528;5.076;2023-03-22T08:09:23;100576.97;;;14.70;56.04
64158;BME280;50449;51.528;5.076;2023-03-22T08:11:48;100579.94;;;14.68;55.93
64158;BME280;50449;51.528;5.076;2023-03-22T08:14:14;100575.06;;;14.70;56.04
64158;BME280;50449;51.528;5.076;2023-03-22T08:16:39;100565.28;;;14.69;56.12
64158;BME280;50449;51.528;5.076;2023-03-22T08:19:05;100560.94;;;14.68;55.71
64158;BME280;50449;51.528;5.076;2023-03-22T08:21:32;100560.13;;;14.68;55.87
64158;BME280;50449;51.528;5.076;2023-03-22T08:23:57;100556.28;;;14.69;55.97
64158;BME280;50449;51.528;5.076;2023-03-22T08:26:23;100549.22;;;14.73;55.46
64158;BME280;50449;51.528;5.076;2023-03-22T08:28:48;100547.88;;;14.76;55.93
64158;BME280;50449;51.528;5.076;2023-03-22T08:31:15;100544.34;;;14.70;55.88
64158;BME280;50449;51.528;5.076;2023-03-22T08:33:41;100550.59;;;14.76;55.55
64158;BME280;50449;51.528;5.076;2023-03-22T08:36:09;100543.78;;;14.78;55.85
64158;BME280;50449;51.528;5.076;2023-03-22T08:38:36;100550.88;;;14.79;55.81
64158;BME280;50449;51.528;5.076;2023-03-22T08:41:01;100548.16;;;14.79;55.68
64158;BME280;50449;51.528;5.076;2023-03-22T08:43:28;100553.84;;;14.78;55.71
64158;BME280;50449;51.528;5.076;2023-03-22T08:45:53;100557.94;;;14.75;55.48
64158;BME280;50449;51.528;5.076;2023-03-22T08:48:19;100563.38;;;14.75;55.63
64158;BME280;50449;51.528;5.076;2023-03-22T08:50:44;100554.94;;;14.77;55.86
64158;BME280;50449;51.528;5.076;2023-03-22T08:53:10;100560.91;;;14.74;55.62
64158;BME280;50449;51.528;5.076;2023-03-22T08:55:35;100544.59;;;14.74;55.42
64158;BME280;50449;51.528;5.076;2023-03-22T08:58:01;100548.41;;;14.78;55.50
64158;BME280;50449;51.528;5.076;2023-03-22T09:00:28;100548.94;;;14.80;55.70
64158;BME280;50449;51.528;5.076;2023-03-22T09:02:54;100539.44;;;14.82;55.43
64158;BME280;50449;51.528;5.076;2023-03-22T09:05:19;100541.88;;;14.79;55.82
64158;BME280;50449;51.528;5.076;2023-03-22T09:07:44;100545.13;;;14.81;55.39
64158;BME280;50449;51.528;5.076;2023-03-22T09:10:10;100544.88;;;14.82;55.72
64158;BME280;50449;51.528;5.076;2023-03-22T09:12:36;100543.50;;;14.85;55.34
64158;BME280;50449;51.528;5.076;2023-03-22T09:15:02;100544.31;;;14.85;55.49
64158;BME280;50449;51.528;5.076;2023-03-22T09:17:28;100539.41;;;14.87;55.82
64158;BME280;50449;51.528;5.076;2023-03-22T09:19:53;100543.75;;;14.88;55.57
64158;BME280;50449;51.528;5.076;2023-03-22T09:22:19;100535.88;;;14.92;55.81
64158;BME280;50449;51.528;5.076;2023-03-22T09:24:44;100533.97;;;14.92;55.74
64158;BME280;50449;51.528;5.076;2023-03-22T09:27:09;100537.75;;;14.91;55.60
64158;BME280;50449;51.528;5.076;2023-03-22T09:29:35;100539.94;;;14.95;55.94
64158;BME280;50449;51.528;5.076;2023-03-22T09:32:00;100539.66;;;14.96;55.57
64158;BME280;50449;51.528;5.076;2023-03-22T09:34:26;100537.75;;;14.91;55.94
64158;BME280;50449;51.528;5.076;2023-03-22T09:36:52;100536.69;;;14.92;56.28
64158;BME280;50449;51.528;5.076;2023-03-22T09:39:17;100542.91;;;14.98;56.01
64158;BME280;50449;51.528;5.076;2023-03-22T09:41:47;100534.75;;;14.98;55.95
64158;BME280;50449;51.528;5.076;2023-03-22T09:44:35;100535.88;;;14.92;55.94
64158;BME280;50449;51.528;5.076;2023-03-22T09:47:04;100532.03;;;14.98;56.10
64158;BME280;50449;51.528;5.076;2023-03-22T09:49:35;100539.66;;;14.96;56.14
64158;BME280;50449;51.528;5.076;2023-03-22T09:52:08;100538.28;;;14.99;56.01
64158;BME280;50449;51.528;5.076;2023-03-22T09:54:40;100533.13;;;14.97;55.83
64158;BME280;50449;51.528;5.076;2023-03-22T10:03:13;100546.75;;;14.97;55.88
64158;BME280;50449;51.528;5.076;2023-03-22T10:10:58;100553.22;;;15.06;55.80
64158;BME280;50449;51.528;5.076;2023-03-22T10:16:28;100565.75;;;15.07;56.01
64158;BME280;50449;51.528;5.076;2023-03-22T10:19:04;100556.47;;;15.08;56.15
64158;BME280;50449;51.528;5.076;2023-03-22T10:21:31;100552.94;;;15.08;56.11
64158;BME280;50449;51.528;5.076;2023-03-22T10:24:14;100559.47;;;15.12;55.99
64158;BME280;50449;51.528;5.076;2023-03-22T10:26:44;100559.47;;;15.12;56.15
64158;BME280;50449;51.528;5.076;2023-03-22T10:31:47;100556.75;;;15.12;56.37
64158;BME280;50449;51.528;5.076;2023-03-22T10:34:19;100549.41;;;15.12;56.52
64158;BME280;50449;51.528;5.076;2023-03-22T10:36:47;100550.78;;;15.10;56.65
64158;BME280;50449;51.528;5.076;2023-03-22T10:39:27;100552.66;;;15.14;56.68
64158;BME280;50449;51.528;5.076;2023-03-22T10:41:54;100547.72;;;15.22;56.48
64158;BME280;50449;51.528;5.076;2023-03-22T10:44:22;100549.59;;;15.26;56.53
64158;BME280;50449;51.528;5.076;2023-03-22T10:46:51;100537.66;;;15.27;56.24
64158;BME280;50449;51.528;5.076;2023-03-22T10:49:34;100539.25;;;15.28;56.54
64158;BME280;50449;51.528;5.076;2023-03-22T10:54:51;100545.25;;;15.30;56.62
64158;BME280;50449;51.528;5.076;2023-03-22T10:57:17;100546.88;;;15.31;56.72
64158;BME280;50449;51.528;5.076;2023-03-22T10:59:54;100534.34;;;15.30;56.57
64158;BME280;50449;51.528;5.076;2023-03-22T11:02:29;100546.59;;;15.33;56.50
64158;BME280;50449;51.528;5.076;2023-03-22T11:05:01;100545.78;;;15.32;56.77
64158;BME280;50449;51.528;5.076;2023-03-22T11:07:34;100541.97;;;15.33;56.76
64158;BME280;50449;51.528;5.076;2023-03-22T11:12:28;100534.03;;;15.37;56.43
64158;BME280;50449;51.528;5.076;2023-03-22T11:14:55;100534.03;;;15.37;57.00
64158;BME280;50449;51.528;5.076;2023-03-22T11:17:23;100535.41;;;15.40;56.72
64158;BME280;50449;51.528;5.076;2023-03-22T11:19:54;100531.84;;;15.39;57.02
64158;BME280;50449;51.528;5.076;2023-03-22T11:22:33;100530.25;;;15.38;57.03
64158;BME280;50449;51.528;5.076;2023-03-22T11:25:02;100537.31;;;15.39;56.77
64158;BME280;50449;51.528;5.076;2023-03-22T11:27:30;100527.25;;;15.40;56.83
64158;BME280;50449;51.528;5.076;2023-03-22T11:29:58;100522.63;;;15.40;56.78
64158;BME280;50449;51.528;5.076;2023-03-22T11:32:35;100535.38;;;15.45;56.94
64158;BME280;50449;51.528;5.076;2023-03-22T11:35:13;100532.13;;;15.43;56.73
64158;BME280;50449;51.528;5.076;2023-03-22T11:37:52;100531.03;;;15.44;56.88
64158;BME280;50449;51.528;5.076;2023-03-22T11:40:26;100536.19;;;15.45;56.64
64158;BME280;50449;51.528;5.076;2023-03-22T11:42:54;100527.22;;;15.45;56.95
64158;BME280;50449;51.528;5.076;2023-03-22T11:45:28;100519.91;;;15.40;57.09
64158;BME280;50449;51.528;5.076;2023-03-22T11:48:01;100512.53;;;15.41;56.70
64158;BME280;50449;51.528;5.076;2023-03-22T11:50:31;100510.09;;;15.39;57.17
64158;BME280;50449;51.528;5.076;2023-03-22T11:53:00;100516.38;;;15.40;57.12
64158;BME280;50449;51.528;5.076;2023-03-22T11:55:28;100500.31;;;15.38;57.09
64158;BME280;50449;51.528;5.076;2023-03-22T11:57:56;100512.28;;;15.42;57.06
64158;BME280;50449;51.528;5.076;2023-03-22T12:00:27;100510.06;;;15.44;57.11
64158;BME280;50449;51.528;5.076;2023-03-22T12:03:00;100507.88;;;15.46;57.15
64158;BME280;50449;51.528;5.076;2023-03-22T12:05:34;100515.47;;;15.49;56.86
64158;BME280;50449;51.528;5.076;2023-03-22T12:08:27;100504.88;;;15.48;57.14
64158;BME280;50449;51.528;5.076;2023-03-22T12:11:02;100516.56;;;15.48;56.91
64158;BME280;50449;51.528;5.076;2023-03-22T12:13:51;100523.38;;;15.51;56.89
64158;BME280;50449;51.528;5.076;2023-03-22T12:16:27;100510.84;;;15.55;56.68
64158;BME280;50449;51.528;5.076;2023-03-22T12:19:27;100518.72;;;15.51;57.03
64158;BME280;50449;51.528;5.076;2023-03-22T12:21:57;100506.47;;;15.54;56.95
64158;BME280;50449;51.528;5.076;2023-03-22T12:24:26;100519.25;;;15.58;56.70
64158;BME280;50449;51.528;5.076;2023-03-22T12:26:53;100526.88;;;15.56;57.11
64158;BME280;50449;51.528;5.076;2023-03-22T12:29:21;100524.94;;;15.57;57.21
64158;BME280;50449;51.528;5.076;2023-03-22T12:32:02;100525.78;;;15.57;57.01
64158;BME280;50449;51.528;5.076;2023-03-22T12:34:50;100519.81;;;15.55;57.22
64158;BME280;50449;51.528;5.076;2023-03-22T12:37:27;100515.97;;;15.56;57.09
64158;BME280;50449;51.528;5.076;2023-03-22T12:39:55;100525.25;;;15.55;57.28
64158;BME280;50449;51.528;5.076;2023-03-22T12:42:48;100517.63;;;15.57;56.73
64158;BME280;50449;51.528;5.076;2023-03-22T12:45:25;100521.16;;;15.58;57.15
64158;BME280;50449;51.528;5.076;2023-03-22T12:48:02;100522.53;;;15.55;57.35
64158;BME280;50449;51.528;5.076;2023-03-22T12:50:35;100507.53;;;15.58;57.27
64158;BME280;50449;51.528;5.076;2023-03-22T12:53:03;100504.78;;;15.63;57.22
64158;BME280;50449;51.528;5.076;2023-03-22T12:55:34;100503.41;;;15.66;57.14
64158;BME280;50449;51.528;5.076;2023-03-22T12:58:01;100507.47;;;15.68;57.13
64158;BME280;50449;51.528;5.076;2023-03-22T13:00:40;100503.66;;;15.69;56.78
64158;BME280;50449;51.528;5.076;2023-03-22T13:03:25;100505.81;;;15.67;57.28
64158;BME280;50449;51.528;5.076;2023-03-22T13:06:02;100499.88;;;15.70;57.18
64158;BME280;50449;51.528;5.076;2023-03-22T13:11:25;100501.50;;;15.71;56.97
64158;BME280;50449;51.528;5.076;2023-03-22T13:13:51;100504.22;;;15.71;57.39
64158;BME280;50449;51.528;5.076;2023-03-22T13:16:19;100502.56;;;15.75;57.01
64158;BME280;50449;51.528;5.076;2023-03-22T13:21:20;100506.31;;;15.79;56.88
64158;BME280;50449;51.528;5.076;2023-03-22T13:26:34;100511.78;;;15.79;57.06
64158;BME280;50449;51.528;5.076;2023-03-22T13:29:09;100504.44;;;15.80;56.63
64158;BME280;50449;51.528;5.076;2023-03-22T13:31:44;100504.44;;;15.80;56.83
64158;BME280;50449;51.528;5.076;2023-03-22T13:34:28;100495.69;;;15.83;57.29
64158;BME280;50449;51.528;5.076;2023-03-22T13:36:56;100500.84;;;15.85;56.91
64158;BME280;50449;51.528;5.076;2023-03-22T13:39:23;100503.03;;;15.88;56.82
64158;BME280;50449;51.528;5.076;2023-03-22T13:42:16;100503.81;;;15.88;56.69
64158;BME280;50449;51.528;5.076;2023-03-22T13:44:42;100501.91;;;15.89;56.75
64158;BME280;50449;51.528;5.076;2023-03-22T13:47:43;100497.84;;;15.86;57.21
64158;BME280;50449;51.528;5.076;2023-03-22T13:50:25;100504.63;;;15.89;57.16
64158;BME280;50449;51.528;5.076;2023-03-22T13:53:11;100497.28;;;15.89;57.00
64158;BME280;50449;51.528;5.076;2023-03-22T13:55:57;100493.16;;;15.92;56.86
64158;BME280;50449;51.528;5.076;2023-03-22T14:01:05;100486.88;;;15.96;56.96
64158;BME280;50449;51.528;5.076;2023-03-22T14:03:39;100480.31;;;15.97;56.84
64158;BME280;50449;51.528;5.076;2023-03-22T14:06:22;100485.00;;;15.92;56.86
64158;BME280;50449;51.528;5.076;2023-03-22T14:08:53;100477.34;;;15.94;57.35
64158;BME280;50449;51.528;5.076;2023-03-22T14:11:25;100489.34;;;15.93;57.30
64158;BME280;50449;51.528;5.076;2023-03-22T14:13:58;100477.94;;;15.91;57.21
64158;BME280;50449;51.528;5.076;2023-03-22T14:19:04;100466.41;;;15.99;56.81
64158;BME280;50449;51.528;5.076;2023-03-22T14:21:38;100467.53;;;15.98;56.97